Terminal Aerodrome Forecast
Issued by NWS

Home | Current Version | Previous Version | Text Only | Print | Product List | Glossary On
Versions: 1 2 3 4 5 6 7 8 9 10 11 12
058
FTUS45 KABQ 192341
TAFFMN
TAF
KFMN 192341Z 2000/2024 16022G35KT P6SM BKN130
     FM200300 19015G25KT P6SM BKN130
     FM200800 24012G20KT P6SM BKN130
     FM201100 23008KT P6SM SCT130
     FM201900 27012KT P6SM VCSH SCT070 BKN150=

USA.gov is the U.S. government's official web portal to all federal, state and local government web resources and services.